sensor_id;sensor_type;location;lat;lon;timestamp;pressure;altitude;pressure_sealevel;temperature
73265;BMP280;61493;51.008;14.088;2022-08-02T00:02:23;98169.63;;;16.14
73265;BMP280;61493;51.008;14.088;2022-08-02T00:04:49;98172.91;;;16.09
73265;BMP280;61493;51.008;14.088;2022-08-02T00:07:15;98170.50;;;16.02
73265;BMP280;61493;51.008;14.088;2022-08-02T00:09:41;98168.13;;;15.95
73265;BMP280;61493;51.008;14.088;2022-08-02T00:12:07;98170.97;;;15.91
73265;BMP280;61493;51.008;14.088;2022-08-02T00:14:32;98168.41;;;15.87
73265;BMP280;61493;51.008;14.088;2022-08-02T00:16:57;98166.19;;;15.77
73265;BMP280;61493;51.008;14.088;2022-08-02T00:19:23;98169.44;;;15.72
73265;BMP280;61493;51.008;14.088;2022-08-02T00:21:48;98166.91;;;15.68
73265;BMP280;61493;51.008;14.088;2022-08-02T00:24:13;98154.72;;;15.58
73265;BMP280;61493;51.008;14.088;2022-08-02T00:26:39;98162.16;;;15.63
73265;BMP280;61493;51.008;14.088;2022-08-02T00:29:04;98157.66;;;15.60
73265;BMP280;61493;51.008;14.088;2022-08-02T00:31:30;98162.59;;;15.52
73265;BMP280;61493;51.008;14.088;2022-08-02T00:33:55;98165.81;;;15.38
73265;BMP280;61493;51.008;14.088;2022-08-02T00:36:20;98152.72;;;15.31
73265;BMP280;61493;51.008;14.088;2022-08-02T00:38:46;98155.69;;;15.24
73265;BMP280;61493;51.008;14.088;2022-08-02T00:41:21;98152.38;;;15.20
73265;BMP280;61493;51.008;14.088;2022-08-02T00:43:49;98151.75;;;15.16
73265;BMP280;61493;51.008;14.088;2022-08-02T00:46:16;98146.81;;;15.05
73265;BMP280;61493;51.008;14.088;2022-08-02T00:48:42;98156.59;;;14.99
73265;BMP280;61493;51.008;14.088;2022-08-02T00:51:07;98158.53;;;14.89
73265;BMP280;61493;51.008;14.088;2022-08-02T00:53:32;98159.22;;;14.81
73265;BMP280;61493;51.008;14.088;2022-08-02T00:55:59;98158.59;;;14.77
73265;BMP280;61493;51.008;14.088;2022-08-02T00:58:24;98154.31;;;14.79
73265;BMP280;61493;51.008;14.088;2022-08-02T01:00:49;98155.69;;;14.84
73265;BMP280;61493;51.008;14.088;2022-08-02T01:03:15;98153.00;;;14.84
73265;BMP280;61493;51.008;14.088;2022-08-02T01:05:40;98154.34;;;14.88
73265;BMP280;61493;51.008;14.088;2022-08-02T01:08:05;98151.69;;;14.88
73265;BMP280;61493;51.008;14.088;2022-08-02T01:10:31;98139.78;;;14.99
73265;BMP280;61493;51.008;14.088;2022-08-02T01:12:57;98149.47;;;14.96
73265;BMP280;61493;51.008;14.088;2022-08-02T01:15:22;98158.53;;;14.89
73265;BMP280;61493;51.008;14.088;2022-08-02T01:17:52;98160.84;;;14.78
73265;BMP280;61493;51.008;14.088;2022-08-02T01:23:33;98158.84;;;14.70
73265;BMP280;61493;51.008;14.088;2022-08-02T01:26:16;98159.59;;;14.61
73265;BMP280;61493;51.008;14.088;2022-08-02T01:28:48;98162.66;;;14.59
73265;BMP280;61493;51.008;14.088;2022-08-02T01:31:20;98160.25;;;14.52
73265;BMP280;61493;51.008;14.088;2022-08-02T01:34:03;98154.59;;;14.50
73265;BMP280;61493;51.008;14.088;2022-08-02T01:36:35;98163.31;;;14.42
73265;BMP280;61493;51.008;14.088;2022-08-02T01:39:03;98153.34;;;14.42
73265;BMP280;61493;51.008;14.088;2022-08-02T01:41:31;98150.06;;;14.38
73265;BMP280;61493;51.008;14.088;2022-08-02T01:43:58;98152.22;;;14.31
73265;BMP280;61493;51.008;14.088;2022-08-02T01:46:26;98145.94;;;14.24
73265;BMP280;61493;51.008;14.088;2022-08-02T01:48:55;98143.56;;;14.26
73265;BMP280;61493;51.008;14.088;2022-08-02T01:51:21;98148.63;;;14.24
73265;BMP280;61493;51.008;14.088;2022-08-02T01:54:08;98156.34;;;14.22
73265;BMP280;61493;51.008;14.088;2022-08-02T01:56:35;98146.06;;;14.21
73265;BMP280;61493;51.008;14.088;2022-08-02T01:59:02;98146.25;;;14.26
73265;BMP280;61493;51.008;14.088;2022-08-02T02:01:31;98151.84;;;14.19
73265;BMP280;61493;51.008;14.088;2022-08-02T02:03:59;98140.94;;;14.14
73265;BMP280;61493;51.008;14.088;2022-08-02T02:06:26;98152.09;;;14.12
73265;BMP280;61493;51.008;14.088;2022-08-02T02:08:52;98156.59;;;14.15
73265;BMP280;61493;51.008;14.088;2022-08-02T02:11:17;98160.69;;;14.07
73265;BMP280;61493;51.008;14.088;2022-08-02T02:13:43;98158.34;;;13.96
73265;BMP280;61493;51.008;14.088;2022-08-02T02:16:09;98161.59;;;13.91
73265;BMP280;61493;51.008;14.088;2022-08-02T02:18:38;98155.63;;;13.87
73265;BMP280;61493;51.008;14.088;2022-08-02T02:21:05;98151.53;;;13.83
73265;BMP280;61493;51.008;14.088;2022-08-02T02:23:31;98151.53;;;13.83
73265;BMP280;61493;51.008;14.088;2022-08-02T02:25:56;98154.53;;;13.85
73265;BMP280;61493;51.008;14.088;2022-08-02T02:28:24;98161.59;;;13.91
73265;BMP280;61493;51.008;14.088;2022-08-02T02:30:59;98163.75;;;13.84
73265;BMP280;61493;51.008;14.088;2022-08-02T02:33:26;98168.81;;;13.82
73265;BMP280;61493;51.008;14.088;2022-08-02T02:35:56;98171.06;;;13.71
73265;BMP280;61493;51.008;14.088;2022-08-02T02:38:22;98173.09;;;13.67
73265;BMP280;61493;51.008;14.088;2022-08-02T02:43:14;98178.59;;;13.63
73265;BMP280;61493;51.008;14.088;2022-08-02T02:45:42;98171.16;;;13.67
73265;BMP280;61493;51.008;14.088;2022-08-02T02:48:08;98185.06;;;13.62
73265;BMP280;61493;51.008;14.088;2022-08-02T02:50:35;98172.88;;;13.61
73265;BMP280;61493;51.008;14.088;2022-08-02T02:53:01;98176.53;;;13.54
73265;BMP280;61493;51.008;14.088;2022-08-02T02:55:27;98181.88;;;13.54
73265;BMP280;61493;51.008;14.088;2022-08-02T02:57:53;98176.84;;;13.56
73265;BMP280;61493;51.008;14.088;2022-08-02T03:00:18;98188.31;;;13.57
73265;BMP280;61493;51.008;14.088;2022-08-02T03:03:05;98193.19;;;13.71
73265;BMP280;61493;51.008;14.088;2022-08-02T03:05:30;98196.81;;;13.77
73265;BMP280;61493;51.008;14.088;2022-08-02T03:07:55;98189.94;;;13.89
73265;BMP280;61493;51.008;14.088;2022-08-02T03:10:21;98190.97;;;14.04
73265;BMP280;61493;51.008;14.088;2022-08-02T03:12:46;98189.63;;;14.21
73265;BMP280;61493;51.008;14.088;2022-08-02T03:15:12;98186.91;;;14.34
73265;BMP280;61493;51.008;14.088;2022-08-02T03:17:43;98195.03;;;14.43
73265;BMP280;61493;51.008;14.088;2022-08-02T03:20:11;98194.00;;;14.50
73265;BMP280;61493;51.008;14.088;2022-08-02T03:22:36;98196.25;;;14.51
73265;BMP280;61493;51.008;14.088;2022-08-02T03:25:02;98198.91;;;14.51
73265;BMP280;61493;51.008;14.088;2022-08-02T03:27:27;98204.16;;;14.55
73265;BMP280;61493;51.008;14.088;2022-08-02T03:29:52;98201.22;;;14.62
73265;BMP280;61493;51.008;14.088;2022-08-02T03:32:18;98206.03;;;14.67
73265;BMP280;61493;51.008;14.088;2022-08-02T03:34:43;98205.47;;;14.72
73265;BMP280;61493;51.008;14.088;2022-08-02T03:37:09;98207.56;;;14.77
73265;BMP280;61493;51.008;14.088;2022-08-02T03:39:35;98197.44;;;14.81
73265;BMP280;61493;51.008;14.088;2022-08-02T03:42:00;98198.72;;;14.89
73265;BMP280;61493;51.008;14.088;2022-08-02T03:44:26;98201.06;;;14.87
73265;BMP280;61493;51.008;14.088;2022-08-02T03:46:51;98198.03;;;14.76
73265;BMP280;61493;51.008;14.088;2022-08-02T03:49:17;98197.53;;;14.69
73265;BMP280;61493;51.008;14.088;2022-08-02T03:51:44;98200.03;;;14.63
73265;BMP280;61493;51.008;14.088;2022-08-02T03:54:09;98205.31;;;14.76
73265;BMP280;61493;51.008;14.088;2022-08-02T03:56:35;98210.25;;;14.77
73265;BMP280;61493;51.008;14.088;2022-08-02T03:59:08;98214.44;;;14.78
73265;BMP280;61493;51.008;14.088;2022-08-02T04:01:34;98204.31;;;14.82
73265;BMP280;61493;51.008;14.088;2022-08-02T04:03:59;98204.09;;;14.99
73265;BMP280;61493;51.008;14.088;2022-08-02T04:06:25;98201.00;;;15.00
73265;BMP280;61493;51.008;14.088;2022-08-02T04:08:50;98206.34;;;15.00
73265;BMP280;61493;51.008;14.088;2022-08-02T04:11:17;98213.66;;;15.09
73265;BMP280;61493;51.008;14.088;2022-08-02T04:13:59;98223.84;;;15.14
73265;BMP280;61493;51.008;14.088;2022-08-02T04:16:52;98223.88;;;15.32
73265;BMP280;61493;51.008;14.088;2022-08-02T04:19:42;98217.50;;;15.39
73265;BMP280;61493;51.008;14.088;2022-08-02T04:22:15;98232.31;;;15.52
73265;BMP280;61493;51.008;14.088;2022-08-02T04:24:44;98225.19;;;15.68
73265;BMP280;61493;51.008;14.088;2022-08-02T04:27:12;98229.38;;;15.78
73265;BMP280;61493;51.008;14.088;2022-08-02T04:29:39;98230.69;;;15.73
73265;BMP280;61493;51.008;14.088;2022-08-02T04:32:05;98224.16;;;15.83
73265;BMP280;61493;51.008;14.088;2022-08-02T04:34:31;98226.25;;;15.88
73265;BMP280;61493;51.008;14.088;2022-08-02T04:36:59;98229.69;;;15.98
73265;BMP280;61493;51.008;14.088;2022-08-02T04:39:25;98236.13;;;16.01
73265;BMP280;61493;51.008;14.088;2022-08-02T04:41:51;98236.84;;;16.01
73265;BMP280;61493;51.008;14.088;2022-08-02T04:44:16;98242.84;;;16.33
73265;BMP280;61493;51.008;14.088;2022-08-02T04:46:42;98240.69;;;16.64
73265;BMP280;61493;51.008;14.088;2022-08-02T04:49:08;98247.06;;;17.27
73265;BMP280;61493;51.008;14.088;2022-08-02T04:51:41;98252.78;;;17.20
73265;BMP280;61493;51.008;14.088;2022-08-02T04:54:07;98254.13;;;17.15
73265;BMP280;61493;51.008;14.088;2022-08-02T04:56:33;98246.16;;;16.88
73265;BMP280;61493;51.008;14.088;2022-08-02T04:58:58;98254.69;;;16.86
73265;BMP280;61493;51.008;14.088;2022-08-02T05:01:24;98247.38;;;16.87
73265;BMP280;61493;51.008;14.088;2022-08-02T05:03:49;98249.09;;;17.08
73265;BMP280;61493;51.008;14.088;2022-08-02T05:06:14;98250.38;;;17.22
73265;BMP280;61493;51.008;14.088;2022-08-02T05:08:40;98257.34;;;17.38
73265;BMP280;61493;51.008;14.088;2022-08-02T05:11:06;98265.69;;;18.11
73265;BMP280;61493;51.008;14.088;2022-08-02T05:13:31;98262.09;;;18.58
73265;BMP280;61493;51.008;14.088;2022-08-02T05:15:56;98265.78;;;19.20
73265;BMP280;61493;51.008;14.088;2022-08-02T05:18:25;98273.97;;;19.46
73265;BMP280;61493;51.008;14.088;2022-08-02T05:20:50;98277.19;;;19.50
73265;BMP280;61493;51.008;14.088;2022-08-02T05:23:15;98273.63;;;19.38
73265;BMP280;61493;51.008;14.088;2022-08-02T05:25:41;98287.63;;;19.77
73265;BMP280;61493;51.008;14.088;2022-08-02T05:28:06;98287.78;;;20.97
73265;BMP280;61493;51.008;14.088;2022-08-02T05:30:31;98279.38;;;21.97
73265;BMP280;61493;51.008;14.088;2022-08-02T05:32:56;98278.06;;;23.32
73265;BMP280;61493;51.008;14.088;2022-08-02T05:35:22;98263.72;;;23.84
73265;BMP280;61493;51.008;14.088;2022-08-02T05:37:49;98265.66;;;23.95
73265;BMP280;61493;51.008;14.088;2022-08-02T05:40:16;98262.59;;;24.63
73265;BMP280;61493;51.008;14.088;2022-08-02T05:42:41;98264.16;;;25.64
73265;BMP280;61493;51.008;14.088;2022-08-02T05:45:07;98270.06;;;26.00
73265;BMP280;61493;51.008;14.088;2022-08-02T05:47:33;98261.25;;;26.91
73265;BMP280;61493;51.008;14.088;2022-08-02T05:49:58;98263.97;;;27.05
73265;BMP280;61493;51.008;14.088;2022-08-02T05:52:25;98271.78;;;26.87
73265;BMP280;61493;51.008;14.088;2022-08-02T05:55:07;98270.59;;;26.96
73265;BMP280;61493;51.008;14.088;2022-08-02T06:00:24;98269.16;;;24.98
73265;BMP280;61493;51.008;14.088;2022-08-02T06:05:55;98280.06;;;23.78
73265;BMP280;61493;51.008;14.088;2022-08-02T06:08:23;98284.75;;;23.20
73265;BMP280;61493;51.008;14.088;2022-08-02T06:10:50;98288.69;;;23.25
73265;BMP280;61493;51.008;14.088;2022-08-02T06:13:15;98274.81;;;24.27
73265;BMP280;61493;51.008;14.088;2022-08-02T06:15:41;98278.31;;;25.62
73265;BMP280;61493;51.008;14.088;2022-08-02T06:18:07;98283.47;;;25.28
73265;BMP280;61493;51.008;14.088;2022-08-02T06:20:33;98280.09;;;24.14
73265;BMP280;61493;51.008;14.088;2022-08-02T06:23:01;98278.88;;;24.69
73265;BMP280;61493;51.008;14.088;2022-08-02T06:25:28;98273.69;;;26.21
73265;BMP280;61493;51.008;14.088;2022-08-02T06:27:53;98281.91;;;28.23
73265;BMP280;61493;51.008;14.088;2022-08-02T06:30:19;98278.06;;;29.18
73265;BMP280;61493;51.008;14.088;2022-08-02T06:32:44;98279.09;;;29.08
73265;BMP280;61493;51.008;14.088;2022-08-02T06:35:12;98277.22;;;28.95
73265;BMP280;61493;51.008;14.088;2022-08-02T06:37:50;98282.31;;;26.25
73265;BMP280;61493;51.008;14.088;2022-08-02T06:43:09;98283.28;;;25.21
73265;BMP280;61493;51.008;14.088;2022-08-02T06:45:36;98285.94;;;24.83
73265;BMP280;61493;51.008;14.088;2022-08-02T06:48:01;98286.13;;;25.10
73265;BMP280;61493;51.008;14.088;2022-08-02T06:50:26;98286.44;;;25.43
73265;BMP280;61493;51.008;14.088;2022-08-02T06:52:52;98284.75;;;25.59
73265;BMP280;61493;51.008;14.088;2022-08-02T06:55:17;98288.56;;;25.88
73265;BMP280;61493;51.008;14.088;2022-08-02T06:57:42;98288.72;;;27.67
73265;BMP280;61493;51.008;14.088;2022-08-02T07:00:08;98284.66;;;28.79
73265;BMP280;61493;51.008;14.088;2022-08-02T07:02:37;98290.59;;;29.72
73265;BMP280;61493;51.008;14.088;2022-08-02T07:05:04;98289.47;;;28.94
73265;BMP280;61493;51.008;14.088;2022-08-02T07:07:30;98296.25;;;29.82
73265;BMP280;61493;51.008;14.088;2022-08-02T07:09:57;98296.00;;;30.56
73265;BMP280;61493;51.008;14.088;2022-08-02T07:12:22;98301.38;;;30.94
73265;BMP280;61493;51.008;14.088;2022-08-02T07:14:47;98283.94;;;30.51
73265;BMP280;61493;51.008;14.088;2022-08-02T07:17:13;98294.94;;;31.88
73265;BMP280;61493;51.008;14.088;2022-08-02T07:19:38;98299.97;;;32.51
73265;BMP280;61493;51.008;14.088;2022-08-02T07:22:04;98298.84;;;32.54
73265;BMP280;61493;51.008;14.088;2022-08-02T07:24:29;98288.66;;;31.88
73265;BMP280;61493;51.008;14.088;2022-08-02T07:26:54;98278.53;;;30.29
73265;BMP280;61493;51.008;14.088;2022-08-02T07:29:20;98273.78;;;29.61
73265;BMP280;61493;51.008;14.088;2022-08-02T07:31:45;98272.66;;;30.17
73265;BMP280;61493;51.008;14.088;2022-08-02T07:34:10;98277.19;;;29.54
73265;BMP280;61493;51.008;14.088;2022-08-02T07:36:36;98283.63;;;29.56
73265;BMP280;61493;51.008;14.088;2022-08-02T07:39:01;98285.28;;;31.55
73265;BMP280;61493;51.008;14.088;2022-08-02T07:41:26;98284.88;;;32.87
73265;BMP280;61493;51.008;14.088;2022-08-02T07:43:51;98282.41;;;32.47
73265;BMP280;61493;51.008;14.088;2022-08-02T07:46:17;98281.97;;;30.92
73265;BMP280;61493;51.008;14.088;2022-08-02T07:48:42;98285.47;;;30.22
73265;BMP280;61493;51.008;14.088;2022-08-02T07:51:07;98278.78;;;30.71
73265;BMP280;61493;51.008;14.088;2022-08-02T07:53:33;98286.31;;;31.02
73265;BMP280;61493;51.008;14.088;2022-08-02T07:55:58;98282.53;;;30.90
73265;BMP280;61493;51.008;14.088;2022-08-02T07:58:23;98280.31;;;30.34
73265;BMP280;61493;51.008;14.088;2022-08-02T08:00:49;98274.31;;;29.67
73265;BMP280;61493;51.008;14.088;2022-08-02T08:03:14;98277.47;;;31.12
73265;BMP280;61493;51.008;14.088;2022-08-02T08:05:39;98265.31;;;31.22
73265;BMP280;61493;51.008;14.088;2022-08-02T08:08:05;98261.50;;;30.30
73265;BMP280;61493;51.008;14.088;2022-08-02T08:10:30;98270.00;;;32.04
73265;BMP280;61493;51.008;14.088;2022-08-02T08:12:56;98265.06;;;33.90
73265;BMP280;61493;51.008;14.088;2022-08-02T08:15:22;98268.44;;;34.46
73265;BMP280;61493;51.008;14.088;2022-08-02T08:17:47;98254.91;;;35.31
73265;BMP280;61493;51.008;14.088;2022-08-02T08:20:12;98269.41;;;34.60
73265;BMP280;61493;51.008;14.088;2022-08-02T08:22:38;98268.44;;;35.27
73265;BMP280;61493;51.008;14.088;2022-08-02T08:25:03;98265.28;;;34.80
73265;BMP280;61493;51.008;14.088;2022-08-02T08:27:28;98263.13;;;33.63
73265;BMP280;61493;51.008;14.088;2022-08-02T08:29:54;98255.81;;;35.24
73265;BMP280;61493;51.008;14.088;2022-08-02T08:32:19;98255.28;;;36.90
73265;BMP280;61493;51.008;14.088;2022-08-02T08:34:45;98249.97;;;38.55
73265;BMP280;61493;51.008;14.088;2022-08-02T08:37:11;98256.19;;;38.28
73265;BMP280;61493;51.008;14.088;2022-08-02T08:39:36;98254.53;;;37.12
73265;BMP280;61493;51.008;14.088;2022-08-02T08:42:05;98256.03;;;35.80
73265;BMP280;61493;51.008;14.088;2022-08-02T08:44:31;98247.47;;;33.76
73265;BMP280;61493;51.008;14.088;2022-08-02T08:46:58;98262.00;;;33.30
73265;BMP280;61493;51.008;14.088;2022-08-02T08:49:30;98251.47;;;35.11
73265;BMP280;61493;51.008;14.088;2022-08-02T08:52:02;98258.78;;;34.57
73265;BMP280;61493;51.008;14.088;2022-08-02T08:54:28;98254.03;;;34.97
73265;BMP280;61493;51.008;14.088;2022-08-02T08:56:55;98245.97;;;36.17
73265;BMP280;61493;51.008;14.088;2022-08-02T08:59:21;98251.66;;;39.01
73265;BMP280;61493;51.008;14.088;2022-08-02T09:01:47;98250.00;;;37.79
73265;BMP280;61493;51.008;14.088;2022-08-02T09:04:13;98257.69;;;36.27
73265;BMP280;61493;51.008;14.088;2022-08-02T09:06:39;98247.16;;;35.81
73265;BMP280;61493;51.008;14.088;2022-08-02T09:09:04;98261.09;;;36.37
73265;BMP280;61493;51.008;14.088;2022-08-02T09:11:29;98265.19;;;36.60
73265;BMP280;61493;51.008;14.088;2022-08-02T09:13:59;98254.91;;;37.55
73265;BMP280;61493;51.008;14.088;2022-08-02T09:16:37;98255.84;;;37.97
73265;BMP280;61493;51.008;14.088;2022-08-02T09:19:18;98250.91;;;34.72
73265;BMP280;61493;51.008;14.088;2022-08-02T09:21:44;98258.66;;;33.97
73265;BMP280;61493;51.008;14.088;2022-08-02T09:24:21;98261.59;;;33.07
73265;BMP280;61493;51.008;14.088;2022-08-02T09:26:47;98259.00;;;32.04
73265;BMP280;61493;51.008;14.088;2022-08-02T09:29:14;98254.34;;;31.72
73265;BMP280;61493;51.008;14.088;2022-08-02T09:31:39;98257.63;;;31.95
73265;BMP280;61493;51.008;14.088;2022-08-02T09:34:05;98262.44;;;32.73
73265;BMP280;61493;51.008;14.088;2022-08-02T09:36:39;98253.81;;;35.88
73265;BMP280;61493;51.008;14.088;2022-08-02T09:39:07;98257.06;;;36.97
73265;BMP280;61493;51.008;14.088;2022-08-02T09:41:35;98250.66;;;38.42
73265;BMP280;61493;51.008;14.088;2022-08-02T09:44:03;98244.03;;;37.11
73265;BMP280;61493;51.008;14.088;2022-08-02T09:46:30;98244.00;;;35.23
73265;BMP280;61493;51.008;14.088;2022-08-02T09:48:57;98243.69;;;32.89
73265;BMP280;61493;51.008;14.088;2022-08-02T09:53:52;98236.00;;;32.87
73265;BMP280;61493;51.008;14.088;2022-08-02T09:56:19;98238.47;;;33.19
73265;BMP280;61493;51.008;14.088;2022-08-02T09:58:44;98238.81;;;33.33
73265;BMP280;61493;51.008;14.088;2022-08-02T10:01:10;98241.63;;;31.34
73265;BMP280;61493;51.008;14.088;2022-08-02T10:03:36;98238.69;;;31.57
73265;BMP280;61493;51.008;14.088;2022-08-02T10:06:02;98231.59;;;32.74
73265;BMP280;61493;51.008;14.088;2022-08-02T10:08:29;98232.34;;;32.58
73265;BMP280;61493;51.008;14.088;2022-08-02T10:10:55;98224.78;;;36.55
73265;BMP280;61493;51.008;14.088;2022-08-02T10:13:32;98222.09;;;36.45
73265;BMP280;61493;51.008;14.088;2022-08-02T10:15:58;98224.53;;;34.40
73265;BMP280;61493;51.008;14.088;2022-08-02T10:18:23;98219.22;;;32.66
73265;BMP280;61493;51.008;14.088;2022-08-02T10:20:49;98220.56;;;31.96
73265;BMP280;61493;51.008;14.088;2022-08-02T10:23:15;98221.28;;;34.63
73265;BMP280;61493;51.008;14.088;2022-08-02T10:25:44;98211.25;;;35.72
73265;BMP280;61493;51.008;14.088;2022-08-02T10:28:14;98214.53;;;37.52
73265;BMP280;61493;51.008;14.088;2022-08-02T10:30:41;98211.16;;;39.11
73265;BMP280;61493;51.008;14.088;2022-08-02T10:33:09;98208.59;;;40.52
73265;BMP280;61493;51.008;14.088;2022-08-02T10:35:37;98209.53;;;42.16
73265;BMP280;61493;51.008;14.088;2022-08-02T10:38:05;98199.53;;;38.47
73265;BMP280;61493;51.008;14.088;2022-08-02T10:41:04;98213.06;;;34.34
73265;BMP280;61493;51.008;14.088;2022-08-02T10:46:32;98208.41;;;34.87
73265;BMP280;61493;51.008;14.088;2022-08-02T10:49:13;98203.09;;;35.31
73265;BMP280;61493;51.008;14.088;2022-08-02T10:52:02;98200.69;;;36.13
73265;BMP280;61493;51.008;14.088;2022-08-02T10:54:34;98207.00;;;35.07
73265;BMP280;61493;51.008;14.088;2022-08-02T10:57:00;98206.47;;;33.53
73265;BMP280;61493;51.008;14.088;2022-08-02T10:59:30;98190.47;;;36.15
73265;BMP280;61493;51.008;14.088;2022-08-02T11:01:58;98187.81;;;36.17
73265;BMP280;61493;51.008;14.088;2022-08-02T11:07:15;98181.09;;;34.31
73265;BMP280;61493;51.008;14.088;2022-08-02T11:09:45;98176.00;;;33.32
73265;BMP280;61493;51.008;14.088;2022-08-02T11:12:13;98182.00;;;33.86
73265;BMP280;61493;51.008;14.088;2022-08-02T11:14:41;98175.91;;;34.16
73265;BMP280;61493;51.008;14.088;2022-08-02T11:17:15;98181.03;;;33.35
73265;BMP280;61493;51.008;14.088;2022-08-02T11:22:38;98179.88;;;36.12
73265;BMP280;61493;51.008;14.088;2022-08-02T11:27:52;98180.81;;;34.08
73265;BMP280;61493;51.008;14.088;2022-08-02T11:30:18;98192.41;;;33.49
73265;BMP280;61493;51.008;14.088;2022-08-02T11:32:44;98186.66;;;33.83
73265;BMP280;61493;51.008;14.088;2022-08-02T11:35:10;98189.19;;;35.83
73265;BMP280;61493;51.008;14.088;2022-08-02T11:37:37;98186.91;;;35.59
73265;BMP280;61493;51.008;14.088;2022-08-02T11:40:05;98192.88;;;34.22
73265;BMP280;61493;51.008;14.088;2022-08-02T11:42:35;98182.03;;;34.55
73265;BMP280;61493;51.008;14.088;2022-08-02T11:45:01;98189.50;;;35.78
73265;BMP280;61493;51.008;14.088;2022-08-02T11:47:27;98182.41;;;38.25
73265;BMP280;61493;51.008;14.088;2022-08-02T11:50:03;98187.38;;;39.67
73265;BMP280;61493;51.008;14.088;2022-08-02T11:52:32;98175.53;;;40.60
73265;BMP280;61493;51.008;14.088;2022-08-02T11:54:57;98175.78;;;41.17
73265;BMP280;61493;51.008;14.088;2022-08-02T11:57:23;98179.22;;;41.16
73265;BMP280;61493;51.008;14.088;2022-08-02T11:59:52;98174.13;;;42.22
73265;BMP280;61493;51.008;14.088;2022-08-02T12:02:19;98179.34;;;41.02
73265;BMP280;61493;51.008;14.088;2022-08-02T12:04:57;98170.47;;;38.22
73265;BMP280;61493;51.008;14.088;2022-08-02T12:07:37;98177.53;;;36.88
73265;BMP280;61493;51.008;14.088;2022-08-02T12:10:06;98176.00;;;35.72
73265;BMP280;61493;51.008;14.088;2022-08-02T12:12:33;98176.34;;;34.63
73265;BMP280;61493;51.008;14.088;2022-08-02T12:15:10;98167.72;;;33.41
73265;BMP280;61493;51.008;14.088;2022-08-02T12:17:35;98172.66;;;32.60
73265;BMP280;61493;51.008;14.088;2022-08-02T12:20:19;98154.94;;;32.10
73265;BMP280;61493;51.008;14.088;2022-08-02T12:22:44;98161.88;;;31.94
73265;BMP280;61493;51.008;14.088;2022-08-02T12:25:18;98159.56;;;32.51
73265;BMP280;61493;51.008;14.088;2022-08-02T12:27:44;98156.25;;;32.53
73265;BMP280;61493;51.008;14.088;2022-08-02T12:30:12;98157.63;;;32.44
73265;BMP280;61493;51.008;14.088;2022-08-02T12:32:38;98162.88;;;31.88
73265;BMP280;61493;51.008;14.088;2022-08-02T12:35:17;98158.94;;;31.40
73265;BMP280;61493;51.008;14.088;2022-08-02T12:37:47;98147.16;;;31.64
73265;BMP280;61493;51.008;14.088;2022-08-02T12:40:19;98144.66;;;31.93
73265;BMP280;61493;51.008;14.088;2022-08-02T12:42:50;98140.84;;;32.06
73265;BMP280;61493;51.008;14.088;2022-08-02T12:45:15;98133.13;;;31.77
73265;BMP280;61493;51.008;14.088;2022-08-02T12:47:47;98136.44;;;31.34
73265;BMP280;61493;51.008;14.088;2022-08-02T12:50:21;98127.28;;;30.57
73265;BMP280;61493;51.008;14.088;2022-08-02T12:52:48;98129.19;;;30.39
73265;BMP280;61493;51.008;14.088;2022-08-02T12:55:19;98130.53;;;30.63
73265;BMP280;61493;51.008;14.088;2022-08-02T12:57:57;98121.78;;;30.09
73265;BMP280;61493;51.008;14.088;2022-08-02T13:00:35;98125.78;;;30.63
73265;BMP280;61493;51.008;14.088;2022-08-02T13:03:01;98123.69;;;31.04
73265;BMP280;61493;51.008;14.088;2022-08-02T13:05:27;98122.44;;;30.97
73265;BMP280;61493;51.008;14.088;2022-08-02T13:07:54;98129.44;;;30.91
73265;BMP280;61493;51.008;14.088;2022-08-02T13:10:20;98119.41;;;30.86
73265;BMP280;61493;51.008;14.088;2022-08-02T13:12:46;98119.75;;;31.15
73265;BMP280;61493;51.008;14.088;2022-08-02T13:15:11;98124.41;;;31.29
73265;BMP280;61493;51.008;14.088;2022-08-02T13:17:36;98121.31;;;31.25
73265;BMP280;61493;51.008;14.088;2022-08-02T13:20:03;98124.84;;;31.18
73265;BMP280;61493;51.008;14.088;2022-08-02T13:22:29;98127.03;;;30.95
73265;BMP280;61493;51.008;14.088;2022-08-02T13:24:54;98117.22;;;30.84
73265;BMP280;61493;51.008;14.088;2022-08-02T13:27:19;98111.28;;;30.71
73265;BMP280;61493;51.008;14.088;2022-08-02T13:29:45;98121.25;;;30.51
73265;BMP280;61493;51.008;14.088;2022-08-02T13:32:10;98120.06;;;30.37
73265;BMP280;61493;51.008;14.088;2022-08-02T13:34:35;98120.38;;;30.48
73265;BMP280;61493;51.008;14.088;2022-08-02T13:37:01;98120.06;;;30.69
73265;BMP280;61493;51.008;14.088;2022-08-02T13:39:27;98116.00;;;29.90
73265;BMP280;61493;51.008;14.088;2022-08-02T13:41:52;98120.28;;;30.24
73265;BMP280;61493;51.008;14.088;2022-08-02T13:44:18;98108.69;;;29.93
73265;BMP280;61493;51.008;14.088;2022-08-02T13:46:43;98105.78;;;29.91
73265;BMP280;61493;51.008;14.088;2022-08-02T13:49:08;98110.66;;;30.07
73265;BMP280;61493;51.008;14.088;2022-08-02T13:51:34;98106.75;;;29.48
73265;BMP280;61493;51.008;14.088;2022-08-02T13:53:59;98104.41;;;29.21
73265;BMP280;61493;51.008;14.088;2022-08-02T13:56:24;98090.88;;;29.01
73265;BMP280;61493;51.008;14.088;2022-08-02T13:58:51;98089.97;;;29.44
73265;BMP280;61493;51.008;14.088;2022-08-02T14:01:16;98089.69;;;29.87
73265;BMP280;61493;51.008;14.088;2022-08-02T14:03:41;98092.88;;;30.16
73265;BMP280;61493;51.008;14.088;2022-08-02T14:06:06;98094.34;;;30.09
73265;BMP280;61493;51.008;14.088;2022-08-02T14:08:33;98093.09;;;30.50
73265;BMP280;61493;51.008;14.088;2022-08-02T14:10:58;98084.38;;;30.69
73265;BMP280;61493;51.008;14.088;2022-08-02T14:13:23;98087.50;;;30.66
73265;BMP280;61493;51.008;14.088;2022-08-02T14:15:49;98087.56;;;30.58
73265;BMP280;61493;51.008;14.088;2022-08-02T14:18:15;98092.44;;;30.67
73265;BMP280;61493;51.008;14.088;2022-08-02T14:20:42;98086.31;;;30.51
73265;BMP280;61493;51.008;14.088;2022-08-02T14:23:07;98088.72;;;30.47
73265;BMP280;61493;51.008;14.088;2022-08-02T14:25:33;98077.66;;;30.30
73265;BMP280;61493;51.008;14.088;2022-08-02T14:27:58;98078.06;;;30.51